Time;durP1;ratioP1;P1;durP2;ratioP2;P2;SDS_P1;SDS_P2;PMS_P1;PMS_P2;Temp;Humidity;BMP_temperature;BMP_pressure;BME280_temperature;BME280_humidity;BME280_pressure;Samples;Min_cycle;Max_cycle;Signal;HPM_P1;HPM_P2
2021/01/11 00:02:04;;;;;;;20.58;8.50;;;-4.70;99.90;;;;;;5068251;28;20100;-77
2021/01/11 00:04:30;;;;;;;21.88;8.57;;;-4.80;99.90;;;;;;5071889;28;20025;-77
2021/01/11 00:06:56;;;;;;;18.05;6.68;;;-4.70;99.90;;;;;;5071736;28;20111;-77
2021/01/11 00:09:22;;;;;;;25.45;6.75;;;-4.70;99.90;;;;;;5069373;28;20036;-77
2021/01/11 00:11:49;;;;;;;15.10;5.75;;;-4.70;99.90;;;;;;5069551;28;20044;-77
2021/01/11 00:14:15;;;;;;;13.98;5.97;;;-4.80;99.90;;;;;;5071495;28;20040;-76
2021/01/11 00:16:41;;;;;;;13.73;6.63;;;-4.70;99.90;;;;;;5071508;28;20109;-77
2021/01/11 00:19:07;;;;;;;12.95;5.70;;;-4.80;99.90;;;;;;5070847;28;20487;-77
2021/01/11 00:21:32;;;;;;;13.40;5.05;;;-4.70;99.90;;;;;;5049740;28;20499;-77
2021/01/11 00:23:58;;;;;;;13.40;5.75;;;-4.80;99.90;;;;;;5048818;28;20037;-77
2021/01/11 00:26:24;;;;;;;12.68;6.18;;;-4.80;99.90;;;;;;5069625;28;20040;-76
2021/01/11 00:28:50;;;;;;;12.75;6.50;;;-4.70;99.90;;;;;;5079041;28;20036;-77
2021/01/11 00:31:23;;;;;;;18.08;7.47;;;-4.70;99.90;;;;;;5084948;28;20047;-77
2021/01/11 00:33:50;;;;;;;13.60;6.55;;;-4.80;99.90;;;;;;5061454;28;20082;-77
2021/01/11 00:36:16;;;;;;;18.95;7.18;;;-4.70;99.90;;;;;;5069826;28;20451;-77
2021/01/11 00:38:42;;;;;;;17.88;6.88;;;-4.70;99.90;;;;;;5053087;28;20067;-76
2021/01/11 00:41:08;;;;;;;16.33;6.97;;;-4.70;99.90;;;;;;5048766;28;20086;-76
2021/01/11 00:43:34;;;;;;;13.50;5.57;;;-4.70;99.90;;;;;;5051088;28;20136;-76
2021/01/11 00:46:00;;;;;;;14.35;6.03;;;-4.90;99.90;;;;;;5050865;28;20100;-77
2021/01/11 00:48:26;;;;;;;13.63;6.07;;;-4.90;99.90;;;;;;5051847;28;20041;-77
2021/01/11 00:50:51;;;;;;;13.38;5.95;;;-4.90;99.90;;;;;;5051966;28;20068;-76
2021/01/11 00:53:19;;;;;;;13.68;5.32;;;-5.00;99.90;;;;;;5069391;28;20054;-77
2021/01/11 00:55:45;;;;;;;15.40;6.00;;;-4.90;99.90;;;;;;5052913;28;20549;-76
2021/01/11 00:58:16;;;;;;;17.30;6.93;;;-5.00;99.90;;;;;;5033430;28;20055;-76
2021/01/11 01:00:49;;;;;;;15.40;6.28;;;-5.00;99.90;;;;;;5038769;28;20020;-76
2021/01/11 01:03:23;;;;;;;13.52;5.88;;;-5.10;99.90;;;;;;5054739;28;20430;-77
2021/01/11 01:05:48;;;;;;;13.38;5.70;;;-5.20;99.90;;;;;;5072759;28;20033;-76
2021/01/11 01:08:14;;;;;;;13.82;5.30;;;-5.20;99.90;;;;;;5069890;28;20032;-76
2021/01/11 01:10:40;;;;;;;15.23;6.45;;;-5.10;99.90;;;;;;5047908;28;20061;-76
2021/01/11 01:13:05;;;;;;;14.20;6.50;;;-5.20;99.90;;;;;;5058505;28;20477;-76
2021/01/11 01:15:31;;;;;;;14.82;6.40;;;-5.20;99.90;;;;;;5069977;28;20020;-77
2021/01/11 01:17:57;;;;;;;15.10;6.75;;;-5.30;99.90;;;;;;5069095;28;20029;-77
2021/01/11 01:20:22;;;;;;;14.07;5.85;;;-5.30;99.90;;;;;;5050617;28;20510;-77
2021/01/11 01:22:50;;;;;;;12.15;5.40;;;-5.30;99.90;;;;;;5070093;28;20033;-76
2021/01/11 01:25:16;;;;;;;13.68;5.72;;;-5.30;99.90;;;;;;5070273;28;20032;-77
2021/01/11 01:27:42;;;;;;;11.02;5.85;;;-5.30;99.90;;;;;;5070068;28;20044;-76
2021/01/11 01:30:10;;;;;;;10.23;5.55;;;-5.20;99.90;;;;;;5069034;28;20036;-76
2021/01/11 01:32:36;;;;;;;10.13;5.25;;;-5.30;99.90;;;;;;5052130;28;20039;-77
2021/01/11 01:35:02;;;;;;;10.95;5.40;;;-5.40;99.90;;;;;;5074757;28;20028;-77
2021/01/11 01:37:28;;;;;;;10.55;4.53;;;-5.40;99.90;;;;;;5070050;28;20078;-76
2021/01/11 01:39:53;;;;;;;14.60;5.93;;;-5.30;99.90;;;;;;5075336;28;20376;-76
2021/01/11 01:42:19;;;;;;;12.05;5.40;;;-5.30;99.90;;;;;;5070408;28;20032;-76
2021/01/11 01:44:45;;;;;;;12.57;5.63;;;-5.40;99.90;;;;;;5078288;28;20029;-77
2021/01/11 01:47:11;;;;;;;11.93;5.40;;;-5.40;99.90;;;;;;5086802;28;20385;-77
2021/01/11 01:49:37;;;;;;;12.98;5.63;;;-5.40;99.90;;;;;;5088710;28;20409;-76
2021/01/11 01:52:04;;;;;;;11.88;5.57;;;-5.50;99.90;;;;;;5089948;28;20531;-77
2021/01/11 01:54:30;;;;;;;15.13;6.30;;;-5.60;99.90;;;;;;5090157;28;20047;-76
2021/01/11 01:56:55;;;;;;;10.35;4.57;;;-5.70;99.90;;;;;;5090094;28;20115;-76
2021/01/11 01:59:23;;;;;;;12.85;4.75;;;-5.80;99.90;;;;;;5073334;28;20040;-76
2021/01/11 02:01:53;;;;;;;15.18;5.80;;;-5.90;99.90;;;;;;5082817;28;20056;-76
2021/01/11 02:04:19;;;;;;;14.43;5.25;;;-6.00;99.90;;;;;;5054924;28;20546;-76
2021/01/11 02:06:51;;;;;;;13.88;7.07;;;-6.00;99.90;;;;;;5052235;28;20108;-76
2021/01/11 02:09:38;;;;;;;17.67;7.50;;;-5.90;99.90;;;;;;5054771;28;20032;-76
2021/01/11 02:12:15;;;;;;;17.88;6.32;;;-5.90;99.90;;;;;;5062491;28;20025;-76
2021/01/11 02:14:46;;;;;;;13.90;5.93;;;-5.90;99.90;;;;;;5052288;28;20024;-77
2021/01/11 02:17:16;;;;;;;13.07;7.05;;;-6.00;99.90;;;;;;5070733;28;20032;-76
2021/01/11 02:20:27;;;;;;;13.82;6.00;;;-5.90;99.90;;;;;;5071204;28;20032;-76
2021/01/11 02:23:27;;;;;;;19.13;6.07;;;-5.90;99.90;;;;;;5076776;28;20081;-76
2021/01/11 02:26:39;;;;;;;15.52;5.57;;;-5.80;99.90;;;;;;5089407;28;20016;-76
2021/01/11 02:29:11;;;;;;;16.25;5.40;;;-5.80;99.90;;;;;;5050848;28;20029;-77
2021/01/11 02:31:39;;;;;;;11.23;5.13;;;-5.80;99.90;;;;;;5073734;28;20150;-76
2021/01/11 02:34:06;;;;;;;11.85;5.30;;;-5.70;99.90;;;;;;5074118;28;20024;-76
2021/01/11 02:36:33;;;;;;;9.27;4.90;;;-5.70;99.90;;;;;;5068983;28;20032;-76
2021/01/11 02:38:59;;;;;;;12.15;5.50;;;-5.70;99.90;;;;;;5073137;28;20032;-76
2021/01/11 02:41:25;;;;;;;10.80;4.90;;;-5.70;99.90;;;;;;5083255;28;20060;-76
2021/01/11 02:43:51;;;;;;;15.13;5.53;;;-5.60;99.90;;;;;;5073281;28;20063;-76
2021/01/11 02:46:17;;;;;;;12.63;5.80;;;-5.60;99.90;;;;;;5057590;28;20024;-76
2021/01/11 02:49:08;;;;;;;9.15;4.55;;;-5.60;99.90;;;;;;5054861;28;20471;-76
2021/01/11 02:52:05;;;;;;;11.13;5.45;;;-5.60;99.90;;;;;;5073678;28;20119;-76
2021/01/11 02:54:38;;;;;;;16.70;6.82;;;-5.50;99.90;;;;;;5068979;28;20040;-76
2021/01/11 02:57:27;;;;;;;10.88;4.75;;;-5.40;99.90;;;;;;5083862;28;20037;-76
2021/01/11 02:59:57;;;;;;;13.23;5.90;;;-5.40;99.90;;;;;;5068417;28;20020;-76
2021/01/11 03:02:25;;;;;;;14.55;5.75;;;-5.40;99.90;;;;;;5086235;28;20039;-76
2021/01/11 03:04:52;;;;;;;12.43;5.45;;;-5.50;99.90;;;;;;5077451;28;20060;-76
2021/01/11 03:07:18;;;;;;;14.73;5.68;;;-5.60;99.90;;;;;;5068617;28;20093;-76
2021/01/11 03:09:45;;;;;;;14.68;6.15;;;-5.70;99.90;;;;;;5077624;28;20480;-76
2021/01/11 03:12:11;;;;;;;15.23;5.80;;;-5.90;99.90;;;;;;5086111;28;20031;-76
2021/01/11 03:14:38;;;;;;;18.40;6.43;;;-6.10;99.90;;;;;;5093256;28;20034;-76
2021/01/11 03:17:03;;;;;;;16.58;7.35;;;-6.20;99.90;;;;;;5074411;28;20024;-76
2021/01/11 03:19:29;;;;;;;14.52;5.88;;;-6.20;99.90;;;;;;5091758;28;20035;-76
2021/01/11 03:21:55;;;;;;;14.35;5.90;;;-6.30;99.90;;;;;;5091216;28;20028;-76
2021/01/11 03:24:22;;;;;;;13.75;6.13;;;-6.30;99.90;;;;;;5091221;28;20402;-76
2021/01/11 03:26:49;;;;;;;16.75;6.45;;;-6.40;99.90;;;;;;5075732;28;20407;-76
2021/01/11 03:29:16;;;;;;;15.48;6.53;;;-6.50;99.90;;;;;;5047842;28;20410;-76
2021/01/11 03:31:42;;;;;;;8.60;4.38;;;-6.50;99.90;;;;;;5065368;28;20052;-77
2021/01/11 03:34:10;;;;;;;17.27;6.40;;;-6.40;99.90;;;;;;5070312;28;20028;-76
2021/01/11 03:36:36;;;;;;;15.68;6.95;;;-6.30;99.90;;;;;;5071394;28;20028;-76
2021/01/11 03:39:04;;;;;;;16.38;6.88;;;-6.20;99.90;;;;;;5074606;28;20040;-76
2021/01/11 03:41:32;;;;;;;14.13;5.68;;;-6.30;99.90;;;;;;5059493;28;20047;-76
2021/01/11 03:43:57;;;;;;;13.70;5.47;;;-6.40;99.90;;;;;;5065973;28;20036;-76
2021/01/11 03:46:23;;;;;;;15.30;5.95;;;-6.40;99.90;;;;;;5067263;28;20029;-75
2021/01/11 03:48:49;;;;;;;14.98;5.63;;;-6.50;99.90;;;;;;5073901;28;20068;-76
2021/01/11 03:51:14;;;;;;;12.10;4.95;;;-6.50;99.90;;;;;;5074438;28;20542;-75
2021/01/11 03:53:43;;;;;;;13.07;6.07;;;-6.50;99.90;;;;;;5078708;28;20024;-76
2021/01/11 03:56:09;;;;;;;13.55;5.93;;;-6.60;99.90;;;;;;5080774;28;20158;-75
2021/01/11 03:58:35;;;;;;;14.95;5.68;;;-6.60;99.90;;;;;;5050175;28;20107;-75
2021/01/11 04:01:02;;;;;;;13.65;5.75;;;-6.60;99.90;;;;;;5082220;28;20405;-76
2021/01/11 04:03:28;;;;;;;12.00;5.78;;;-6.70;99.90;;;;;;5077447;28;20029;-75
2021/01/11 04:05:54;;;;;;;12.93;5.95;;;-6.70;99.90;;;;;;5077459;28;20031;-75
2021/01/11 04:08:21;;;;;;;11.77;5.40;;;-6.70;99.90;;;;;;5078470;28;20433;-75
2021/01/11 04:10:47;;;;;;;10.25;5.32;;;-6.70;99.90;;;;;;5077368;28;20036;-75
2021/01/11 04:13:13;;;;;;;12.00;5.80;;;-6.70;99.90;;;;;;5072275;28;20032;-76
2021/01/11 04:15:39;;;;;;;12.82;6.15;;;-6.70;99.90;;;;;;5091730;28;20055;-76
2021/01/11 04:18:05;;;;;;;14.13;6.05;;;-6.80;99.90;;;;;;5089909;28;20032;-76
2021/01/11 04:20:30;;;;;;;13.75;5.15;;;-6.80;99.90;;;;;;5072916;28;20029;-75
2021/01/11 04:22:57;;;;;;;13.75;5.55;;;-6.80;99.90;;;;;;5091357;28;20077;-75
2021/01/11 04:25:24;;;;;;;16.65;5.60;;;-6.90;99.90;;;;;;5090308;28;20558;-75
2021/01/11 04:27:55;;;;;;;14.60;6.05;;;-7.00;99.90;;;;;;5091607;28;20632;-75
2021/01/11 04:30:21;;;;;;;13.98;5.68;;;-7.00;99.90;;;;;;5086897;28;20104;-76
2021/01/11 04:32:47;;;;;;;18.38;5.63;;;-7.10;99.90;;;;;;5090221;28;20092;-78
2021/01/11 04:35:13;;;;;;;17.42;6.35;;;-7.20;99.90;;;;;;5082003;28;20024;-77
2021/01/11 04:37:42;;;;;;;15.85;7.05;;;-7.40;99.90;;;;;;5053239;28;20036;-77
2021/01/11 04:40:09;;;;;;;12.50;5.50;;;-7.50;99.90;;;;;;5076176;28;20020;-77
2021/01/11 04:42:52;;;;;;;13.75;6.15;;;-7.50;99.90;;;;;;5076164;28;20024;-78
2021/01/11 04:45:19;;;;;;;16.55;6.28;;;-7.60;99.90;;;;;;5071117;28;20025;-77
2021/01/11 04:47:50;;;;;;;16.05;6.30;;;-7.50;99.90;;;;;;5081623;28;20024;-77
2021/01/11 04:50:18;;;;;;;19.30;6.93;;;-7.50;99.90;;;;;;5086489;28;20024;-77
2021/01/11 04:52:45;;;;;;;14.82;6.65;;;-7.50;99.90;;;;;;5091218;28;20020;-78
2021/01/11 04:55:12;;;;;;;12.60;5.38;;;-7.60;99.90;;;;;;5091026;28;20029;-77
2021/01/11 04:57:48;;;;;;;13.10;5.20;;;-7.60;99.90;;;;;;5089686;28;20038;-77
2021/01/11 05:00:18;;;;;;;15.57;5.53;;;-7.70;99.90;;;;;;5089417;28;20096;-77
2021/01/11 05:02:45;;;;;;;11.57;5.40;;;-7.70;99.90;;;;;;5079151;28;20020;-76
2021/01/11 05:05:12;;;;;;;13.13;5.38;;;-7.70;99.90;;;;;;5050334;28;20078;-77
2021/01/11 05:07:38;;;;;;;12.90;5.22;;;-7.60;99.90;;;;;;5049269;28;20036;-77
2021/01/11 05:10:09;;;;;;;12.68;5.55;;;-7.60;99.90;;;;;;5048216;28;20025;-77
2021/01/11 05:12:35;;;;;;;14.15;6.25;;;-7.60;99.90;;;;;;5050491;28;20075;-77
2021/01/11 05:15:21;;;;;;;14.25;5.53;;;-7.60;99.90;;;;;;5053804;28;20045;-76
2021/01/11 05:17:47;;;;;;;16.70;5.95;;;-7.50;99.90;;;;;;5070346;28;20047;-77
2021/01/11 05:20:20;;;;;;;22.90;6.65;;;-7.70;99.90;;;;;;5076525;28;20092;-77
2021/01/11 05:22:48;;;;;;;15.43;6.18;;;-7.70;99.90;;;;;;5080265;28;20462;-77
2021/01/11 05:25:26;;;;;;;15.27;6.45;;;-7.80;99.90;;;;;;5087350;28;20414;-76
2021/01/11 05:28:04;;;;;;;15.90;6.57;;;-7.90;99.90;;;;;;5089343;28;20028;-77
2021/01/11 05:30:33;;;;;;;14.15;6.55;;;-8.00;99.90;;;;;;5064883;28;20398;-77
2021/01/11 05:32:59;;;;;;;22.63;7.85;;;-8.00;99.90;;;;;;5049654;28;20087;-77
2021/01/11 05:35:26;;;;;;;18.02;6.85;;;-8.00;99.90;;;;;;5059445;28;20029;-77
2021/01/11 05:37:54;;;;;;;16.67;7.63;;;-8.10;99.90;;;;;;5067289;28;20032;-77
2021/01/11 05:40:24;;;;;;;19.17;7.57;;;-8.20;99.90;;;;;;5069138;28;20021;-77
2021/01/11 05:42:50;;;;;;;13.95;5.97;;;-8.20;99.90;;;;;;5070009;28;20021;-77
2021/01/11 05:45:23;;;;;;;14.80;7.22;;;-8.10;99.90;;;;;;5069930;28;20032;-77
2021/01/11 05:48:01;;;;;;;18.10;6.95;;;-8.00;99.90;;;;;;5069910;28;20024;-77
2021/01/11 05:50:29;;;;;;;14.57;6.60;;;-8.00;99.90;;;;;;5067988;28;20024;-77
2021/01/11 05:52:56;;;;;;;15.15;6.15;;;-8.00;99.90;;;;;;5069873;28;20096;-77
2021/01/11 05:55:26;;;;;;;12.48;6.07;;;-8.00;99.90;;;;;;5070004;28;20086;-77
2021/01/11 05:57:54;;;;;;;11.45;5.75;;;-8.00;99.90;;;;;;5069744;28;20017;-77
2021/01/11 06:00:25;;;;;;;13.57;6.03;;;-8.00;99.90;;;;;;5068551;28;20020;-76
2021/01/11 06:02:53;;;;;;;14.60;5.35;;;-8.10;99.90;;;;;;5059658;28;20083;-76
2021/01/11 06:05:19;;;;;;;14.45;6.40;;;-8.10;99.90;;;;;;5049797;28;20075;-77
2021/01/11 06:07:46;;;;;;;15.00;5.88;;;-8.20;99.90;;;;;;5049724;28;20067;-77
2021/01/11 06:10:14;;;;;;;12.95;5.85;;;-8.20;99.90;;;;;;5047783;28;20060;-77
2021/01/11 06:12:41;;;;;;;12.93;5.88;;;-8.20;99.90;;;;;;5050109;28;20041;-75
2021/01/11 06:15:21;;;;;;;11.13;5.47;;;-8.40;99.90;;;;;;5031725;28;20041;-75
2021/01/11 06:17:49;;;;;;;17.55;7.28;;;-8.40;99.90;;;;;;5051955;28;20123;-75
2021/01/11 06:20:25;;;;;;;12.57;6.22;;;-8.30;99.90;;;;;;5067591;28;20036;-75
2021/01/11 06:22:51;;;;;;;15.57;6.13;;;-8.30;99.90;;;;;;5059813;28;20028;-75
2021/01/11 06:25:20;;;;;;;14.40;6.53;;;-8.20;99.90;;;;;;5069488;28;20078;-75
2021/01/11 06:28:03;;;;;;;16.55;6.40;;;-8.30;99.90;;;;;;5054640;28;20103;-75
2021/01/11 06:30:42;;;;;;;11.77;6.47;;;-8.30;99.90;;;;;;5071425;28;20017;-76
2021/01/11 06:33:14;;;;;;;17.33;6.25;;;-8.20;99.90;;;;;;5066154;28;20028;-75
2021/01/11 06:35:43;;;;;;;17.40;7.47;;;-8.10;99.90;;;;;;5068952;28;20394;-75
2021/01/11 06:38:25;;;;;;;19.10;6.85;;;-8.10;99.90;;;;;;5068917;28;20028;-76
2021/01/11 06:40:51;;;;;;;11.27;5.72;;;-8.10;99.90;;;;;;5069105;28;20100;-76
2021/01/11 06:43:18;;;;;;;14.30;6.60;;;-8.10;99.90;;;;;;5068845;28;20475;-75
2021/01/11 06:45:45;;;;;;;12.55;5.07;;;-8.10;99.90;;;;;;5072083;28;20556;-75
2021/01/11 06:48:32;;;;;;;13.43;4.97;;;-8.20;99.90;;;;;;5069905;28;20033;-76
2021/01/11 06:51:08;;;;;;;13.43;5.85;;;-8.20;99.90;;;;;;5060976;28;20039;-75
2021/01/11 06:53:34;;;;;;;14.73;6.05;;;-8.00;99.90;;;;;;5069959;28;20036;-76
2021/01/11 06:56:11;;;;;;;13.25;5.60;;;-8.00;99.90;;;;;;5069604;28;20040;-75
2021/01/11 06:58:40;;;;;;;19.08;7.43;;;-8.00;99.90;;;;;;5060323;28;20028;-75
2021/01/11 07:01:07;;;;;;;16.33;7.22;;;-8.00;99.90;;;;;;5060879;28;20044;-76
2021/01/11 07:03:47;;;;;;;13.35;5.75;;;-8.00;99.90;;;;;;5066480;28;20021;-76
2021/01/11 07:06:43;;;;;;;11.63;5.25;;;-8.00;99.90;;;;;;5055634;28;20036;-75
2021/01/11 07:09:17;;;;;;;16.50;6.55;;;-8.00;99.90;;;;;;5052019;28;20425;-75
2021/01/11 07:11:53;;;;;;;11.75;5.60;;;-8.00;99.90;;;;;;5070272;28;20446;-75
2021/01/11 07:14:21;;;;;;;18.42;6.65;;;-7.90;99.90;;;;;;5071890;28;20039;-75
2021/01/11 07:16:54;;;;;;;14.38;6.55;;;-7.80;99.90;;;;;;5070438;28;20509;-75
2021/01/11 07:19:43;;;;;;;18.23;7.53;;;-7.70;99.90;;;;;;5071854;28;20613;-76
2021/01/11 07:22:12;;;;;;;16.42;6.57;;;-7.80;99.90;;;;;;5054345;28;20043;-75
2021/01/11 07:24:42;;;;;;;15.23;6.55;;;-7.80;99.90;;;;;;5063069;28;20025;-78
2021/01/11 07:27:09;;;;;;;18.05;6.38;;;-7.80;99.90;;;;;;5061534;28;20028;-77
2021/01/11 07:29:35;;;;;;;14.48;7.05;;;-7.90;99.90;;;;;;5058942;28;20491;-76
2021/01/11 07:32:01;;;;;;;16.05;6.13;;;-7.80;99.90;;;;;;5055832;28;20115;-76
2021/01/11 07:34:27;;;;;;;18.17;6.70;;;-7.80;99.90;;;;;;5069371;28;20032;-76
2021/01/11 07:36:55;;;;;;;15.45;7.07;;;-7.70;99.90;;;;;;5069557;28;20100;-76
2021/01/11 07:39:25;;;;;;;16.90;6.13;;;-7.70;99.90;;;;;;5060676;28;20025;-76
2021/01/11 07:42:00;;;;;;;14.27;6.18;;;-7.80;99.90;;;;;;5064034;28;20064;-76
2021/01/11 07:44:37;;;;;;;13.10;5.57;;;-7.80;99.90;;;;;;5065327;28;20037;-76
2021/01/11 07:47:18;;;;;;;14.80;6.70;;;-7.80;99.90;;;;;;5045598;28;20037;-75
2021/01/11 07:49:51;;;;;;;14.95;6.20;;;-7.70;99.90;;;;;;5060352;28;20028;-76
2021/01/11 07:52:19;;;;;;;9.93;5.63;;;-7.70;99.90;;;;;;5062262;28;20086;-76
2021/01/11 07:54:48;;;;;;;17.88;6.65;;;-7.70;99.90;;;;;;5061519;28;20028;-75
2021/01/11 07:57:15;;;;;;;18.35;6.53;;;-7.70;99.90;;;;;;5060596;28;20029;-75
2021/01/11 07:59:42;;;;;;;16.92;6.93;;;-7.50;99.90;;;;;;5065404;28;20082;-76
2021/01/11 08:02:14;;;;;;;21.33;6.93;;;-7.40;99.90;;;;;;5061810;28;20021;-75
2021/01/11 08:04:41;;;;;;;15.02;6.75;;;-7.40;99.90;;;;;;5066840;28;20028;-76
2021/01/11 08:07:12;;;;;;;12.57;6.13;;;-7.50;99.90;;;;;;5063834;28;20037;-76
2021/01/11 08:09:40;;;;;;;16.52;6.05;;;-7.50;99.90;;;;;;5061888;28;20380;-76
2021/01/11 08:12:11;;;;;;;12.93;6.10;;;-7.40;99.90;;;;;;5050165;28;20056;-75
2021/01/11 08:14:41;;;;;;;12.93;5.43;;;-7.30;99.90;;;;;;5069021;28;20041;-76
2021/01/11 08:17:15;;;;;;;13.63;5.60;;;-7.30;99.90;;;;;;5067397;28;20024;-75
2021/01/11 08:19:42;;;;;;;14.52;5.90;;;-7.30;99.90;;;;;;5071654;28;20502;-75
2021/01/11 08:22:09;;;;;;;16.55;6.20;;;-7.30;99.90;;;;;;5054908;28;20033;-76
2021/01/11 08:24:36;;;;;;;11.13;5.78;;;-7.40;99.90;;;;;;5051515;28;20042;-75
2021/01/11 08:27:20;;;;;;;11.90;5.97;;;-7.40;99.90;;;;;;5065137;28;20079;-76
2021/01/11 08:29:46;;;;;;;16.13;6.65;;;-7.30;99.90;;;;;;5059506;28;20033;-77
2021/01/11 08:32:16;;;;;;;17.52;6.40;;;-7.20;99.90;;;;;;5070640;28;20104;-75
2021/01/11 08:34:41;;;;;;;15.10;6.03;;;-7.00;99.90;;;;;;5073508;28;20482;-76
2021/01/11 08:37:34;;;;;;;14.90;5.45;;;-7.10;99.90;;;;;;5053159;28;20024;-76
2021/01/11 08:40:08;;;;;;;11.35;5.47;;;-7.00;99.90;;;;;;5069392;28;20040;-77
2021/01/11 08:42:36;;;;;;;17.45;5.93;;;-6.90;99.90;;;;;;5070950;28;20119;-76
2021/01/11 08:45:27;;;;;;;14.98;7.05;;;-6.70;99.90;;;;;;5061187;28;20074;-76
2021/01/11 08:48:04;;;;;;;13.52;6.60;;;-6.60;99.90;;;;;;5063308;28;20041;-75
2021/01/11 08:50:54;;;;;;;12.95;6.00;;;-6.60;99.90;;;;;;5063587;28;20032;-76
2021/01/11 08:53:30;;;;;;;11.68;5.07;;;-6.50;99.90;;;;;;5044499;28;20033;-77
2021/01/11 08:55:56;;;;;;;14.20;5.22;;;-6.40;99.90;;;;;;5060931;28;20021;-77
2021/01/11 08:58:23;;;;;;;13.68;5.18;;;-6.30;99.90;;;;;;5065779;28;20039;-75
2021/01/11 09:00:49;;;;;;;10.65;4.68;;;-6.20;99.90;;;;;;5068074;28;20017;-76
2021/01/11 09:03:15;;;;;;;15.23;6.07;;;-6.20;99.90;;;;;;5063376;28;20036;-77
2021/01/11 09:05:42;;;;;;;15.55;6.20;;;-6.10;99.90;;;;;;5060936;28;20024;-76
2021/01/11 09:08:19;;;;;;;22.95;9.52;;;-6.00;99.90;;;;;;5063980;28;20048;-74
2021/01/11 09:10:46;;;;;;;15.60;6.30;;;-5.90;99.90;;;;;;5059727;28;20389;-77
2021/01/11 09:13:18;;;;;;;13.73;6.57;;;-5.70;99.90;;;;;;5056481;28;20066;-77
2021/01/11 09:15:45;;;;;;;11.50;5.15;;;-5.60;99.90;;;;;;5056478;28;20028;-77
2021/01/11 09:18:12;;;;;;;11.02;5.35;;;-5.50;99.90;;;;;;5055918;28;20425;-78
2021/01/11 09:20:40;;;;;;;13.27;5.75;;;-5.40;99.90;;;;;;5063110;28;20386;-76
2021/01/11 09:23:06;;;;;;;16.02;5.70;;;-5.40;99.90;;;;;;5069965;28;20484;-77
2021/01/11 09:25:35;;;;;;;11.68;6.03;;;-5.40;99.90;;;;;;5069899;28;20107;-77
2021/01/11 09:28:03;;;;;;;10.05;4.75;;;-5.40;99.90;;;;;;5068388;28;20035;-77
2021/01/11 09:30:30;;;;;;;12.30;5.07;;;-5.40;99.90;;;;;;5066875;28;20028;-77
2021/01/11 09:32:57;;;;;;;13.38;5.90;;;-5.40;99.90;;;;;;5059129;28;20053;-75
2021/01/11 09:35:22;;;;;;;11.80;5.57;;;-5.40;99.90;;;;;;5061346;28;20542;-76
2021/01/11 09:37:48;;;;;;;10.70;4.80;;;-5.30;99.90;;;;;;5070090;28;20192;-76
2021/01/11 09:40:16;;;;;;;8.70;5.20;;;-5.30;99.90;;;;;;5068722;28;20320;-77
2021/01/11 09:42:44;;;;;;;11.85;5.53;;;-5.20;99.90;;;;;;5062270;28;20027;-76
2021/01/11 09:45:10;;;;;;;11.73;5.00;;;-5.10;99.90;;;;;;5045164;28;20024;-77
2021/01/11 09:47:36;;;;;;;11.93;6.50;;;-5.00;99.90;;;;;;5059959;28;20567;-77
2021/01/11 09:50:04;;;;;;;14.15;5.88;;;-4.80;99.90;;;;;;5033779;28;20124;-77
2021/01/11 09:52:29;;;;;;;11.70;5.35;;;-4.70;99.90;;;;;;5057457;28;20036;-77
2021/01/11 09:54:55;;;;;;;15.00;5.47;;;-4.70;99.90;;;;;;5060583;28;20047;-76
2021/01/11 09:57:21;;;;;;;11.57;5.90;;;-4.60;99.90;;;;;;5066343;28;20025;-76
2021/01/11 09:59:47;;;;;;;16.92;6.30;;;-4.50;99.90;;;;;;5063462;28;20506;-76
2021/01/11 10:02:12;;;;;;;12.60;6.38;;;-4.50;99.90;;;;;;5055396;28;20115;-76
2021/01/11 10:04:38;;;;;;;9.85;5.78;;;-4.40;99.90;;;;;;5062016;28;20079;-77
2021/01/11 10:07:06;;;;;;;12.90;5.80;;;-4.40;99.90;;;;;;5047030;28;20021;-77
2021/01/11 10:09:33;;;;;;;13.88;5.85;;;-4.30;99.90;;;;;;5058790;28;20029;-77
2021/01/11 10:12:02;;;;;;;10.25;5.85;;;-4.30;99.90;;;;;;5058883;28;20111;-76
2021/01/11 10:14:28;;;;;;;11.88;5.95;;;-4.30;99.90;;;;;;5055188;28;20044;-77
2021/01/11 10:16:54;;;;;;;14.35;6.45;;;-4.20;99.90;;;;;;5054121;28;20029;-77
2021/01/11 10:19:26;;;;;;;17.83;7.18;;;-4.10;99.90;;;;;;5056625;28;20082;-76
2021/01/11 10:21:52;;;;;;;14.48;6.68;;;-4.10;99.90;;;;;;5069162;28;20059;-76
2021/01/11 10:24:20;;;;;;;13.75;6.75;;;-4.10;99.90;;;;;;5069874;28;20390;-77
2021/01/11 10:26:48;;;;;;;16.13;6.68;;;-4.10;99.90;;;;;;5070088;28;20037;-77
2021/01/11 10:29:19;;;;;;;12.15;5.65;;;-4.00;99.90;;;;;;5050103;28;20033;-77
2021/01/11 10:31:46;;;;;;;12.50;6.40;;;-3.90;99.90;;;;;;5047894;28;20037;-77
2021/01/11 10:34:13;;;;;;;14.30;7.45;;;-3.80;99.90;;;;;;5048503;28;20021;-77
2021/01/11 10:36:40;;;;;;;15.30;7.45;;;-3.80;99.90;;;;;;5033504;28;20102;-77
2021/01/11 10:39:06;;;;;;;12.38;6.43;;;-3.70;99.90;;;;;;5049236;28;20516;-77
2021/01/11 10:41:32;;;;;;;18.30;7.32;;;-3.60;99.90;;;;;;5051059;28;20495;-77
2021/01/11 10:43:58;;;;;;;16.40;7.47;;;-3.50;99.90;;;;;;5065490;28;20028;-77
2021/01/11 10:46:24;;;;;;;14.20;6.78;;;-3.50;99.90;;;;;;5093595;28;20032;-77
2021/01/11 10:48:49;;;;;;;18.25;7.82;;;-3.50;99.90;;;;;;5091658;28;20028;-77
2021/01/11 10:51:15;;;;;;;18.02;7.55;;;-3.50;99.90;;;;;;5074861;28;20089;-77
2021/01/11 10:53:42;;;;;;;14.65;6.70;;;-3.40;99.90;;;;;;5065794;28;20029;-77
2021/01/11 10:56:09;;;;;;;15.13;6.82;;;-3.30;99.90;;;;;;5062132;28;20119;-77
2021/01/11 10:58:35;;;;;;;17.40;8.00;;;-3.20;99.90;;;;;;5061295;28;20040;-77
2021/01/11 11:01:02;;;;;;;16.77;7.22;;;-3.20;99.90;;;;;;5060515;28;20471;-76
2021/01/11 11:03:28;;;;;;;13.77;6.75;;;-3.10;99.90;;;;;;5061238;28;20036;-75
2021/01/11 11:05:54;;;;;;;13.77;6.63;;;-3.10;99.90;;;;;;5054057;28;20109;-76
2021/01/11 11:08:20;;;;;;;17.10;7.45;;;-3.00;99.90;;;;;;5070777;28;20025;-75
2021/01/11 11:10:46;;;;;;;11.40;6.15;;;-2.90;99.90;;;;;;5053782;28;20029;-76
2021/01/11 11:13:12;;;;;;;13.10;6.18;;;-2.90;99.90;;;;;;5072789;28;20035;-75
2021/01/11 11:15:42;;;;;;;14.27;7.07;;;-2.90;99.90;;;;;;5068255;28;20020;-75
2021/01/11 11:18:07;;;;;;;15.07;7.07;;;-2.80;99.90;;;;;;5065165;28;20032;-76
2021/01/11 11:20:33;;;;;;;14.32;6.90;;;-2.70;99.90;;;;;;5062797;28;20677;-76
2021/01/11 11:22:59;;;;;;;13.63;6.53;;;-2.60;99.90;;;;;;5058979;28;20535;-76
2021/01/11 11:25:25;;;;;;;17.92;7.82;;;-2.40;99.90;;;;;;5060120;28;20032;-75
2021/01/11 11:27:51;;;;;;;15.85;7.32;;;-2.40;99.90;;;;;;5065657;28;20461;-75
2021/01/11 11:30:17;;;;;;;12.85;6.22;;;-2.40;99.90;;;;;;5067569;28;20447;-76
2021/01/11 11:32:50;;;;;;;12.57;6.30;;;-2.30;99.90;;;;;;5062827;28;20486;-75
2021/01/11 11:35:18;;;;;;;14.50;6.60;;;-2.20;99.90;;;;;;5069653;28;20028;-76
2021/01/11 11:37:44;;;;;;;12.00;6.35;;;-2.20;99.90;;;;;;5060860;28;20172;-76
2021/01/11 11:40:12;;;;;;;12.68;6.63;;;-2.20;99.90;;;;;;5062601;28;20028;-76
2021/01/11 11:42:41;;;;;;;14.43;7.10;;;-2.10;99.90;;;;;;5065233;28;20052;-76
2021/01/11 11:45:10;;;;;;;12.15;6.60;;;-2.10;99.90;;;;;;5049545;28;20518;-76
2021/01/11 11:47:40;;;;;;;12.98;6.63;;;-2.00;99.90;;;;;;5070614;28;20058;-76
2021/01/11 11:50:09;;;;;;;14.32;6.10;;;-1.90;99.90;;;;;;5069746;28;20033;-79
2021/01/11 11:52:36;;;;;;;14.18;6.75;;;-1.70;99.90;;;;;;5070066;28;20184;-78
2021/01/11 11:55:03;;;;;;;15.55;6.68;;;-1.70;99.90;;;;;;5066461;28;20439;-78
2021/01/11 11:57:28;;;;;;;13.05;6.38;;;-1.70;99.90;;;;;;5069612;28;20033;-79
2021/01/11 11:59:54;;;;;;;13.57;6.03;;;-1.70;99.90;;;;;;5061167;28;20074;-78
2021/01/11 12:02:20;;;;;;;17.08;6.65;;;-1.70;99.90;;;;;;5060802;28;20033;-79
2021/01/11 12:04:45;;;;;;;11.55;6.00;;;-1.80;99.90;;;;;;5064901;28;20031;-79
2021/01/11 12:07:15;;;;;;;13.63;6.45;;;-1.80;99.90;;;;;;5066342;28;20017;-79
2021/01/11 12:09:42;;;;;;;12.35;6.40;;;-1.80;99.90;;;;;;5067101;28;20033;-78
2021/01/11 12:12:08;;;;;;;14.73;7.18;;;-1.80;99.90;;;;;;5049192;28;20033;-79
2021/01/11 12:14:34;;;;;;;13.05;6.38;;;-1.70;99.90;;;;;;5063412;28;20063;-79
2021/01/11 12:17:01;;;;;;;11.85;6.55;;;-1.80;99.90;;;;;;5063879;28;20032;-78
2021/01/11 12:19:27;;;;;;;13.68;6.03;;;-1.70;99.90;;;;;;5061706;28;20041;-78
2021/01/11 12:21:52;;;;;;;13.57;6.60;;;-1.70;99.90;;;;;;5062128;28;20085;-78
2021/01/11 12:24:18;;;;;;;14.15;6.47;;;-1.70;99.90;;;;;;5065330;28;20053;-79
2021/01/11 12:26:47;;;;;;;13.82;6.40;;;-1.70;99.90;;;;;;5062791;28;20034;-79
2021/01/11 12:29:14;;;;;;;14.52;7.15;;;-1.70;99.90;;;;;;5060468;28;20029;-77
2021/01/11 12:31:40;;;;;;;12.88;5.72;;;-1.70;99.90;;;;;;5061686;28;20035;-77
2021/01/11 12:34:07;;;;;;;13.43;7.05;;;-1.70;99.90;;;;;;5060643;28;20040;-77
2021/01/11 12:36:34;;;;;;;15.05;6.65;;;-1.60;99.90;;;;;;5063510;28;20037;-78
2021/01/11 12:39:02;;;;;;;16.48;7.30;;;-1.60;99.90;;;;;;5064808;28;20053;-77
2021/01/11 12:41:28;;;;;;;15.98;7.35;;;-1.60;99.90;;;;;;5062894;28;20033;-77
2021/01/11 12:43:54;;;;;;;13.57;6.45;;;-1.50;99.90;;;;;;5071956;28;20035;-78
2021/01/11 12:46:22;;;;;;;13.43;6.68;;;-1.50;99.90;;;;;;5067407;28;20024;-77
2021/01/11 12:48:49;;;;;;;16.42;7.57;;;-1.60;99.90;;;;;;5065183;28;20025;-78